Time;durP1;ratioP1;P1;durP2;ratioP2;P2;SDS_P1;SDS_P2;PMS_P1;PMS_P2;Temp;Humidity;BMP_temperature;BMP_pressure;BME280_temperature;BME280_humidity;BME280_pressure;Samples;Min_cycle;Max_cycle;Signal;HPM_P1;HPM_P2
2022/09/23 00:01:23;;;;;;;4.97;2.40;;;14.30;99.90;;;;;;4040998;29;20527;-60
2022/09/23 00:03:24;;;;;;;3.67;2.10;;;14.30;99.90;;;;;;4044817;29;20476;-60
2022/09/23 00:05:26;;;;;;;4.22;2.00;;;14.30;99.90;;;;;;4043888;29;20052;-60
2022/09/23 00:07:27;;;;;;;4.80;2.60;;;14.30;99.90;;;;;;4043918;29;20029;-60
2022/09/23 00:09:27;;;;;;;4.65;2.38;;;14.30;99.90;;;;;;4043286;29;20064;-60
2022/09/23 00:11:28;;;;;;;3.58;2.17;;;14.30;99.90;;;;;;4041656;29;20522;-60
2022/09/23 00:13:28;;;;;;;4.78;2.13;;;14.30;99.90;;;;;;4040822;29;20109;-60
2022/09/23 00:15:30;;;;;;;3.85;2.53;;;14.30;99.90;;;;;;4045707;29;20055;-59
2022/09/23 00:17:31;;;;;;;3.78;1.88;;;14.30;99.90;;;;;;4044135;29;20129;-60
2022/09/23 00:19:31;;;;;;;5.07;2.45;;;14.30;99.90;;;;;;4040047;29;20044;-59
2022/09/23 00:21:32;;;;;;;4.78;2.47;;;14.30;99.90;;;;;;4043346;29;20457;-60
2022/09/23 00:23:33;;;;;;;3.58;2.25;;;14.30;99.90;;;;;;4043487;29;20067;-60
2022/09/23 00:25:33;;;;;;;4.28;2.45;;;14.30;99.90;;;;;;4042472;29;20076;-60
2022/09/23 00:27:35;;;;;;;5.75;2.50;;;14.30;99.90;;;;;;4038944;29;20045;-60
2022/09/23 00:29:35;;;;;;;3.75;2.22;;;14.30;99.90;;;;;;4039901;29;20450;-60
2022/09/23 00:31:36;;;;;;;4.50;2.45;;;14.30;99.90;;;;;;4041748;29;20043;-60
2022/09/23 00:33:37;;;;;;;3.95;2.10;;;14.30;99.90;;;;;;4042068;29;20369;-63
2022/09/23 00:35:37;;;;;;;3.65;2.20;;;14.30;99.90;;;;;;4034273;29;20037;-64
2022/09/23 00:37:38;;;;;;;3.00;2.10;;;14.20;99.90;;;;;;4046868;29;20508;-61
2022/09/23 00:39:39;;;;;;;3.15;2.28;;;14.20;99.90;;;;;;4039705;29;20406;-61
2022/09/23 00:41:40;;;;;;;4.03;2.53;;;14.20;99.90;;;;;;4047104;29;20056;-60
2022/09/23 00:43:43;;;;;;;5.07;2.60;;;14.20;99.90;;;;;;4043991;29;20042;-60
2022/09/23 00:45:49;;;;;;;2.88;2.13;;;14.20;99.90;;;;;;4038247;29;20500;-60
2022/09/23 00:47:51;;;;;;;3.33;2.05;;;14.20;99.90;;;;;;4044993;29;20033;-60
2022/09/23 00:50:19;;;;;;;4.57;2.40;;;14.20;99.90;;;;;;4047217;29;20051;-60
2022/09/23 00:52:22;;;;;;;5.15;2.38;;;14.20;99.90;;;;;;4049024;29;20278;-60
2022/09/23 00:54:26;;;;;;;4.35;2.60;;;14.10;99.90;;;;;;4039534;29;20526;-60
2022/09/23 00:56:28;;;;;;;5.43;2.47;;;14.10;99.90;;;;;;4044724;29;20808;-60
2022/09/23 00:58:33;;;;;;;6.75;2.80;;;14.10;99.90;;;;;;4039336;29;20072;-60
2022/09/23 01:00:34;;;;;;;3.80;2.30;;;14.10;99.90;;;;;;4042885;29;20056;-60
2022/09/23 01:02:36;;;;;;;4.30;2.50;;;14.10;99.90;;;;;;4047300;29;20053;-60
2022/09/23 01:04:37;;;;;;;6.10;2.40;;;14.10;99.90;;;;;;4043600;29;20505;-62
2022/09/23 01:06:38;;;;;;;4.28;2.40;;;14.10;99.90;;;;;;4038404;29;20037;-62
2022/09/23 01:08:41;;;;;;;3.92;2.40;;;14.10;99.90;;;;;;4042796;29;20351;-60
2022/09/23 01:10:55;;;;;;;4.57;2.28;;;14.10;99.90;;;;;;4043018;29;20625;-60
2022/09/23 01:13:22;;;;;;;4.57;2.55;;;14.10;99.90;;;;;;4042813;29;20123;-60
2022/09/23 01:15:41;;;;;;;6.07;2.35;;;14.10;99.90;;;;;;4041615;29;21063;-60
2022/09/23 01:17:46;;;;;;;5.22;2.40;;;14.00;99.90;;;;;;4038458;29;20396;-60
2022/09/23 01:20:05;;;;;;;6.10;2.88;;;14.10;99.90;;;;;;4047034;29;20448;-60
2022/09/23 01:22:28;;;;;;;4.15;2.75;;;14.00;99.90;;;;;;4037867;29;20021;-60
2022/09/23 01:24:51;;;;;;;4.00;2.60;;;14.00;99.90;;;;;;4036644;29;20045;-60
2022/09/23 01:27:01;;;;;;;3.13;2.38;;;14.00;99.90;;;;;;4032988;29;20041;-60
2022/09/23 01:29:07;;;;;;;3.60;2.33;;;14.00;99.90;;;;;;4042660;29;20062;-60
2022/09/23 01:31:31;;;;;;;3.15;2.33;;;13.90;99.90;;;;;;4040087;29;20136;-62
2022/09/23 01:33:50;;;;;;;;;;;13.90;99.90;;;;;;4046164;29;20040;-60
2022/09/23 01:36:21;;;;;;;6.57;2.40;;;13.90;99.90;;;;;;4038948;29;19912;-60
2022/09/23 01:38:49;;;;;;;7.75;3.35;;;13.90;99.90;;;;;;4038449;29;20424;-60
2022/09/23 01:41:14;;;;;;;7.53;2.78;;;13.90;99.90;;;;;;4038527;29;20033;-60
2022/09/23 01:43:45;;;;;;;4.00;2.58;;;13.80;99.90;;;;;;4036122;29;20061;-60
2022/09/23 01:45:46;;;;;;;4.30;2.65;;;13.90;99.90;;;;;;4040497;29;20500;-60
2022/09/23 01:47:53;;;;;;;5.10;2.30;;;13.80;99.90;;;;;;4042322;29;20040;-60
2022/09/23 01:50:54;;;;;;;4.68;2.55;;;13.80;99.90;;;;;;4040369;29;20037;-59
2022/09/23 01:52:46;;;;;;;4.63;2.30;;;13.80;99.90;;;;;;4047059;29;20397;-60
2022/09/23 01:55:16;;;;;;;7.13;3.00;;;13.80;99.90;;;;;;4037017;29;20029;-60
2022/09/23 01:57:21;;;;;;;5.07;2.38;;;13.80;99.90;;;;;;4034926;29;20029;-60
2022/09/23 01:59:29;;;;;;;4.63;2.60;;;13.80;99.90;;;;;;4048711;29;20167;-60
2022/09/23 02:01:44;;;;;;;4.47;2.53;;;13.80;99.90;;;;;;4039864;29;20492;-60
2022/09/23 02:04:00;;;;;;;3.75;2.33;;;13.80;99.90;;;;;;4046592;29;20055;-59
2022/09/23 02:06:06;;;;;;;3.90;2.40;;;13.80;99.90;;;;;;4041640;29;20041;-60
2022/09/23 02:08:18;;;;;;;6.47;2.60;;;13.70;99.90;;;;;;4037764;29;20032;-60
2022/09/23 02:10:24;;;;;;;4.22;2.38;;;13.70;99.90;;;;;;4040180;29;20045;-60
2022/09/23 02:12:29;;;;;;;5.55;2.75;;;13.70;99.90;;;;;;4039603;29;20065;-60
2022/09/23 02:14:40;;;;;;;4.97;2.50;;;13.70;99.90;;;;;;4038422;29;20045;-60
2022/09/23 02:16:46;;;;;;;4.20;2.33;;;13.70;99.90;;;;;;4036639;29;20124;-62
2022/09/23 02:18:55;;;;;;;5.18;2.42;;;13.70;99.90;;;;;;4036625;29;20063;-60
2022/09/23 02:21:01;;;;;;;4.68;2.72;;;13.70;99.90;;;;;;4045589;29;20071;-60
2022/09/23 02:23:11;;;;;;;5.95;2.80;;;13.70;99.90;;;;;;4044748;29;20153;-60
2022/09/23 02:25:14;;;;;;;5.47;2.53;;;13.70;99.90;;;;;;4044471;29;20509;-60
2022/09/23 02:27:59;;;;;;;3.70;2.67;;;13.70;99.90;;;;;;4036561;29;20033;-60
2022/09/23 02:30:14;;;;;;;5.38;2.63;;;13.80;99.90;;;;;;4044014;29;20515;-60
2022/09/23 02:32:24;;;;;;;5.32;2.90;;;13.70;99.90;;;;;;4041061;29;20036;-60
2022/09/23 02:34:41;;;;;;;4.68;2.67;;;13.80;99.90;;;;;;4038062;29;20037;-60
2022/09/23 02:37:12;;;;;;;3.80;2.40;;;13.80;99.90;;;;;;4044414;29;20556;-61
2022/09/23 02:39:13;;;;;;;3.20;2.38;;;13.80;99.90;;;;;;4045362;29;20564;-60
2022/09/23 02:41:36;;;;;;;6.18;2.85;;;13.80;99.90;;;;;;4049257;29;20044;-60
2022/09/23 02:43:56;;;;;;;7.38;2.83;;;13.80;99.90;;;;;;4042604;29;20033;-60
2022/09/23 02:45:57;;;;;;;5.60;2.53;;;13.80;99.90;;;;;;4041782;29;20044;-61
2022/09/23 02:48:04;;;;;;;4.75;2.60;;;13.80;99.90;;;;;;4042971;29;20450;-60
2022/09/23 02:50:05;;;;;;;6.95;2.55;;;13.80;99.90;;;;;;4049234;29;20140;-61
2022/09/23 02:52:07;;;;;;;6.05;2.47;;;13.80;99.90;;;;;;4045318;29;20040;-60
2022/09/23 02:54:13;;;;;;;5.03;2.63;;;13.70;99.90;;;;;;4043606;29;20037;-60
2022/09/23 02:56:19;;;;;;;5.13;2.47;;;13.70;99.90;;;;;;4043235;29;20093;-60
2022/09/23 02:58:20;;;;;;;5.95;3.22;;;13.70;99.90;;;;;;4039858;29;20055;-60
2022/09/23 03:00:21;;;;;;;5.40;2.97;;;13.70;99.90;;;;;;4041420;29;20498;-60
2022/09/23 03:02:58;;;;;;;4.68;2.97;;;13.70;99.90;;;;;;4040808;29;20061;-59
2022/09/23 03:05:17;;;;;;;9.35;2.85;;;13.70;99.90;;;;;;4041874;29;20048;-59
2022/09/23 03:07:22;;;;;;;9.02;3.20;;;13.70;99.90;;;;;;4047185;29;20096;-60
2022/09/23 03:09:37;;;;;;;6.72;2.70;;;13.60;99.90;;;;;;4043763;29;20052;-60
2022/09/23 03:11:43;;;;;;;8.38;3.67;;;13.60;99.90;;;;;;4043559;29;20036;-60
2022/09/23 03:14:16;;;;;;;7.97;3.47;;;13.60;99.90;;;;;;4041773;29;20112;-60
2022/09/23 03:16:46;;;;;;;7.85;3.25;;;13.50;99.90;;;;;;4055631;29;20546;-60
2022/09/23 03:18:50;;;;;;;8.20;3.38;;;13.50;99.90;;;;;;4048340;29;20029;-60
2022/09/23 03:21:07;;;;;;;5.47;2.92;;;13.40;99.90;;;;;;4039934;29;20029;-60
2022/09/23 03:23:12;;;;;;;5.25;2.72;;;13.40;99.90;;;;;;4043011;29;20029;-60
2022/09/23 03:25:17;;;;;;;5.15;2.67;;;13.40;99.90;;;;;;4043356;29;20039;-60
2022/09/23 03:27:26;;;;;;;4.70;2.65;;;13.40;99.90;;;;;;4040896;29;20538;-60
2022/09/23 03:29:27;;;;;;;6.40;3.10;;;13.30;99.90;;;;;;4041129;29;20496;-60
2022/09/23 03:31:29;;;;;;;4.13;2.63;;;13.30;99.90;;;;;;4040168;29;20033;-60
2022/09/23 03:33:31;;;;;;;4.90;2.45;;;13.30;99.90;;;;;;4042961;29;20149;-59
2022/09/23 03:36:48;;;;;;;5.63;2.85;;;13.30;99.90;;;;;;4037301;29;20047;-60
2022/09/23 03:38:11;;;;;;;6.40;2.92;;;13.30;99.90;;;;;;4039515;29;20493;-60
2022/09/23 03:40:25;;;;;;;4.72;2.80;;;13.20;99.90;;;;;;4036902;29;20033;-60
2022/09/23 03:42:28;;;;;;;5.00;2.53;;;13.20;99.90;;;;;;4035771;29;20393;-60
2022/09/23 03:44:36;;;;;;;4.43;2.58;;;13.20;99.90;;;;;;4045084;29;20048;-60
2022/09/23 03:46:37;;;;;;;4.05;2.60;;;13.20;99.90;;;;;;4039873;29;20089;-59
2022/09/23 03:48:37;;;;;;;4.35;2.88;;;13.20;99.90;;;;;;4043506;29;20044;-59
2022/09/23 03:50:38;;;;;;;5.03;2.90;;;13.20;99.90;;;;;;4038964;29;20052;-60
2022/09/23 03:52:39;;;;;;;7.65;2.67;;;13.10;99.90;;;;;;4037863;29;20048;-60
2022/09/23 03:54:40;;;;;;;5.72;2.92;;;13.10;99.90;;;;;;4040616;29;20104;-60
2022/09/23 03:56:41;;;;;;;4.15;2.55;;;13.10;99.90;;;;;;4038881;29;20393;-60
2022/09/23 03:58:44;;;;;;;5.07;2.70;;;13.10;99.90;;;;;;4042734;29;20029;-60
2022/09/23 04:00:45;;;;;;;9.35;3.38;;;13.10;99.90;;;;;;4065545;29;20044;-60
2022/09/23 04:02:46;;;;;;;5.38;2.72;;;13.10;99.90;;;;;;4046009;29;20033;-60
2022/09/23 04:04:46;;;;;;;4.72;2.50;;;13.10;99.90;;;;;;4043703;29;20139;-60
2022/09/23 04:06:47;;;;;;;5.93;2.85;;;13.10;99.90;;;;;;4041602;29;20032;-60
2022/09/23 04:08:48;;;;;;;4.32;2.63;;;13.00;99.90;;;;;;4045543;29;20037;-60
2022/09/23 04:10:49;;;;;;;4.80;2.65;;;13.10;99.90;;;;;;4043419;29;20048;-60
2022/09/23 04:12:49;;;;;;;4.65;2.40;;;13.00;99.90;;;;;;4043165;29;20036;-59
2022/09/23 04:14:50;;;;;;;3.72;2.40;;;13.00;99.90;;;;;;4044891;29;20147;-60
2022/09/23 04:16:51;;;;;;;6.88;3.33;;;13.00;99.90;;;;;;4040128;29;20040;-60
2022/09/23 04:18:52;;;;;;;4.93;2.67;;;13.10;99.90;;;;;;4042629;29;20400;-59
2022/09/23 04:20:59;;;;;;;3.60;2.53;;;13.00;99.90;;;;;;4042726;29;20040;-60
2022/09/23 04:22:59;;;;;;;2.67;2.00;;;13.00;99.90;;;;;;4045093;29;20044;-59
2022/09/23 04:25:01;;;;;;;4.13;2.25;;;13.00;99.90;;;;;;4039366;29;20048;-60
2022/09/23 04:27:02;;;;;;;3.83;2.22;;;13.00;99.90;;;;;;4043339;29;20382;-60
2022/09/23 04:29:03;;;;;;;4.05;2.42;;;13.00;99.90;;;;;;4042582;29;20147;-59
2022/09/23 04:31:08;;;;;;;6.28;2.53;;;13.00;99.90;;;;;;4039824;29;20041;-59
2022/09/23 04:33:10;;;;;;;7.25;2.50;;;13.00;99.90;;;;;;4037680;29;20246;-59
2022/09/23 04:35:10;;;;;;;3.17;2.28;;;13.00;99.90;;;;;;4041379;29;20041;-61
2022/09/23 04:37:11;;;;;;;5.05;2.40;;;13.00;99.90;;;;;;4039230;29;20525;-60
2022/09/23 04:39:13;;;;;;;5.55;2.55;;;13.00;99.90;;;;;;4045088;29;20088;-61
2022/09/23 04:41:14;;;;;;;4.57;2.67;;;13.00;99.90;;;;;;4043516;29;20037;-59
2022/09/23 04:43:16;;;;;;;5.10;2.55;;;12.90;99.90;;;;;;4042993;29;20088;-60
2022/09/23 04:45:16;;;;;;;4.50;2.88;;;13.00;99.90;;;;;;4046177;29;20115;-60
2022/09/23 04:47:18;;;;;;;6.10;2.85;;;12.90;99.90;;;;;;4040181;29;20057;-60
2022/09/23 04:49:18;;;;;;;4.35;2.42;;;13.00;99.90;;;;;;4041284;29;20088;-60
2022/09/23 04:51:21;;;;;;;3.83;2.40;;;12.90;99.90;;;;;;4046020;29;20457;-60
2022/09/23 04:53:21;;;;;;;3.47;2.38;;;12.90;99.90;;;;;;4042351;29;20024;-59
2022/09/23 04:55:22;;;;;;;3.95;2.50;;;12.90;99.90;;;;;;4046424;29;20740;-60
2022/09/23 04:57:23;;;;;;;4.28;2.28;;;12.90;99.90;;;;;;4039061;29;20044;-60
2022/09/23 04:59:24;;;;;;;4.82;1.95;;;12.90;99.90;;;;;;4044739;29;20107;-60
2022/09/23 05:01:27;;;;;;;4.55;2.35;;;12.90;99.90;;;;;;4042077;29;20539;-60
2022/09/23 05:03:29;;;;;;;4.40;2.15;;;12.90;99.90;;;;;;4042172;29;20101;-62
2022/09/23 05:05:30;;;;;;;5.03;2.70;;;12.90;99.90;;;;;;4046863;29;20052;-62
2022/09/23 05:07:31;;;;;;;3.25;2.30;;;12.80;99.90;;;;;;4043099;29;20103;-61
2022/09/23 05:09:32;;;;;;;3.35;2.20;;;12.80;99.90;;;;;;4040383;29;20484;-63
2022/09/23 05:11:33;;;;;;;3.75;2.30;;;12.80;99.90;;;;;;4043412;29;20049;-62
2022/09/23 05:13:34;;;;;;;5.32;2.50;;;12.80;99.90;;;;;;4043306;29;20044;-63
2022/09/23 05:15:34;;;;;;;4.55;2.83;;;12.70;99.90;;;;;;4040598;29;20040;-63
2022/09/23 05:17:36;;;;;;;4.28;2.40;;;12.70;99.90;;;;;;4042824;29;20030;-63
2022/09/23 05:19:36;;;;;;;7.82;3.22;;;12.70;99.90;;;;;;4042899;29;20036;-63
2022/09/23 05:21:37;;;;;;;4.75;2.67;;;12.70;99.90;;;;;;4041545;29;20056;-63
2022/09/23 05:23:39;;;;;;;5.70;2.90;;;12.70;99.90;;;;;;4042666;29;20068;-63
2022/09/23 05:25:41;;;;;;;5.20;2.47;;;12.70;99.90;;;;;;4044280;29;20067;-63
2022/09/23 05:27:41;;;;;;;4.40;3.03;;;12.80;99.90;;;;;;4035991;29;20029;-63
2022/09/23 05:29:42;;;;;;;6.53;3.20;;;12.80;99.90;;;;;;4039150;29;20273;-63
2022/09/23 05:31:43;;;;;;;5.15;2.90;;;12.70;99.90;;;;;;4040306;29;20424;-63
2022/09/23 05:33:46;;;;;;;4.32;2.80;;;12.70;99.90;;;;;;4042518;29;20393;-63
2022/09/23 05:35:47;;;;;;;7.75;3.10;;;12.70;99.90;;;;;;4046645;29;20072;-62
2022/09/23 05:37:48;;;;;;;4.90;2.88;;;12.70;99.90;;;;;;4035497;29;20045;-62
2022/09/23 05:39:48;;;;;;;6.68;2.85;;;12.70;99.90;;;;;;4037734;29;20459;-63
2022/09/23 05:41:49;;;;;;;4.57;2.70;;;12.70;99.90;;;;;;4038857;29;20056;-63
2022/09/23 05:43:51;;;;;;;6.25;2.80;;;12.70;99.90;;;;;;4038716;29;20037;-63
2022/09/23 05:46:00;;;;;;;5.67;3.03;;;12.70;99.90;;;;;;4039235;29;20037;-63
2022/09/23 05:48:01;;;;;;;5.32;3.05;;;12.70;99.90;;;;;;4036849;29;20048;-63
2022/09/23 05:50:01;;;;;;;7.63;3.20;;;12.70;99.90;;;;;;4038329;29;20393;-65
2022/09/23 05:52:02;;;;;;;7.53;3.35;;;12.60;99.90;;;;;;4036280;29;20052;-63
2022/09/23 05:54:04;;;;;;;4.28;2.55;;;12.60;99.90;;;;;;4039610;29;20069;-63
2022/09/23 05:56:05;;;;;;;5.05;2.75;;;12.60;99.90;;;;;;4033655;29;20041;-63
2022/09/23 05:58:06;;;;;;;5.10;3.00;;;12.60;99.90;;;;;;4041065;29;20051;-63
2022/09/23 06:00:07;;;;;;;5.07;2.90;;;12.60;99.90;;;;;;4042588;29;20131;-64
2022/09/23 06:02:08;;;;;;;5.28;2.95;;;12.70;99.90;;;;;;4042688;29;20481;-63
2022/09/23 06:04:11;;;;;;;3.92;2.60;;;12.60;99.90;;;;;;4041485;29;20104;-63
2022/09/23 06:06:13;;;;;;;7.47;3.00;;;12.70;99.90;;;;;;4039733;29;20686;-64
2022/09/23 06:08:14;;;;;;;5.85;2.97;;;12.70;99.90;;;;;;4038610;29;20331;-64
2022/09/23 06:10:14;;;;;;;8.02;3.45;;;12.70;99.90;;;;;;4039329;29;20037;-63
2022/09/23 06:12:15;;;;;;;7.18;2.50;;;12.80;99.90;;;;;;4041207;29;20047;-63
2022/09/23 06:14:15;;;;;;;4.50;2.60;;;12.80;99.90;;;;;;4040305;29;20064;-64
2022/09/23 06:16:16;;;;;;;9.13;3.20;;;12.80;99.90;;;;;;4039883;29;20049;-63
2022/09/23 06:18:16;;;;;;;5.80;3.35;;;12.80;99.90;;;;;;4038859;29;20033;-63
2022/09/23 06:20:17;;;;;;;6.60;2.72;;;12.80;99.90;;;;;;4041706;29;20029;-64
2022/09/23 06:22:18;;;;;;;9.85;3.40;;;12.80;99.90;;;;;;4042043;29;20515;-63
2022/09/23 06:24:18;;;;;;;6.30;3.05;;;12.80;99.90;;;;;;4037988;29;20041;-63
2022/09/23 06:26:19;;;;;;;6.45;3.30;;;12.80;99.90;;;;;;4041726;29;20088;-64
2022/09/23 06:28:19;;;;;;;12.52;3.78;;;12.90;99.90;;;;;;4039232;29;20124;-63
2022/09/23 06:30:23;;;;;;;7.85;2.92;;;12.90;99.90;;;;;;4041663;29;20040;-64
2022/09/23 06:32:24;;;;;;;9.27;3.28;;;13.00;99.90;;;;;;4041034;29;20094;-64
2022/09/23 06:34:24;;;;;;;7.40;3.53;;;13.10;99.90;;;;;;4039082;29;20430;-64
2022/09/23 06:36:25;;;;;;;9.70;3.45;;;13.20;99.90;;;;;;4040076;29;20106;-64
2022/09/23 06:38:27;;;;;;;7.72;3.55;;;13.30;99.90;;;;;;4054791;29;20526;-64
2022/09/23 06:40:28;;;;;;;7.63;3.97;;;13.50;99.90;;;;;;4036331;29;20041;-64
2022/09/23 06:42:28;;;;;;;6.75;3.60;;;13.60;99.90;;;;;;4038074;29;20043;-63
2022/09/23 06:44:29;;;;;;;6.32;3.30;;;13.70;99.90;;;;;;4039480;29;20055;-64
2022/09/23 06:46:30;;;;;;;6.65;3.92;;;13.70;99.90;;;;;;4038175;29;20132;-64
2022/09/23 06:48:34;;;;;;;7.95;3.95;;;13.80;99.90;;;;;;4041768;29;20045;-64
2022/09/23 06:50:35;;;;;;;10.88;4.75;;;13.80;99.90;;;;;;4036286;29;20506;-64
2022/09/23 06:52:36;;;;;;;9.15;3.97;;;13.80;99.90;;;;;;4033594;29;20083;-64
2022/09/23 06:54:36;;;;;;;8.95;4.05;;;13.80;99.90;;;;;;4032394;29;20214;-64
2022/09/23 06:56:37;;;;;;;8.25;3.53;;;13.80;99.90;;;;;;4037982;29;20052;-63
2022/09/23 06:58:39;;;;;;;8.27;4.15;;;13.80;99.90;;;;;;4038658;29;20193;-63
2022/09/23 07:00:39;;;;;;;9.23;4.23;;;13.80;99.90;;;;;;4037561;29;20055;-64
2022/09/23 07:02:41;;;;;;;8.50;3.97;;;13.80;99.90;;;;;;4039034;29;20276;-64
2022/09/23 07:04:41;;;;;;;8.32;3.97;;;13.70;99.90;;;;;;4038505;29;20128;-64
2022/09/23 07:06:42;;;;;;;6.88;4.13;;;13.80;99.90;;;;;;4038423;29;20045;-66
2022/09/23 07:08:45;;;;;;;6.82;3.90;;;13.80;99.90;;;;;;4039152;29;20053;-64
2022/09/23 07:10:58;;;;;;;7.82;3.92;;;13.80;99.90;;;;;;4038089;29;20052;-64
2022/09/23 07:13:01;;;;;;;10.40;3.95;;;13.70;99.90;;;;;;4034612;29;20041;-64
2022/09/23 07:15:01;;;;;;;11.00;4.07;;;13.80;99.90;;;;;;4037719;29;20633;-64
2022/09/23 07:17:02;;;;;;;6.85;4.18;;;13.70;99.90;;;;;;4042219;29;20065;-64
2022/09/23 07:19:03;;;;;;;11.82;4.20;;;13.80;99.90;;;;;;4038160;29;20047;-64
2022/09/23 07:21:07;;;;;;;7.13;3.58;;;13.80;99.90;;;;;;4036078;29;20448;-64
2022/09/23 07:23:08;;;;;;;5.53;3.47;;;13.80;99.90;;;;;;4041536;29;20065;-64
2022/09/23 07:25:10;;;;;;;7.43;3.75;;;13.90;99.90;;;;;;4035896;29;20044;-66
2022/09/23 07:27:13;;;;;;;7.50;3.47;;;13.90;99.90;;;;;;4038840;29;20041;-64
2022/09/23 07:29:13;;;;;;;;;;;13.90;99.90;;;;;;4040168;29;20606;-64
2022/09/23 07:31:16;;;;;;;6.07;3.13;;;14.00;99.90;;;;;;4038674;29;19967;-64
2022/09/23 07:33:17;;;;;;;8.65;4.00;;;14.00;99.90;;;;;;4038694;29;20048;-63
2022/09/23 07:35:18;;;;;;;6.90;3.58;;;14.10;99.90;;;;;;4038894;29;20318;-64
2022/09/23 07:37:18;;;;;;;9.68;3.58;;;14.10;99.90;;;;;;4038272;29;20036;-64
2022/09/23 07:39:19;;;;;;;7.85;3.85;;;14.20;99.90;;;;;;4038729;29;20509;-64
2022/09/23 07:41:20;;;;;;;9.35;3.72;;;14.20;99.90;;;;;;4037369;29;20037;-64
2022/09/23 07:43:20;;;;;;;6.53;3.72;;;14.20;99.90;;;;;;4044464;29;20520;-64
2022/09/23 07:45:22;;;;;;;4.95;3.00;;;14.20;99.90;;;;;;4037764;29;20028;-64
2022/09/23 07:47:22;;;;;;;6.03;2.97;;;14.30;99.90;;;;;;4034082;29;20044;-65
2022/09/23 07:49:24;;;;;;;6.53;3.17;;;14.30;99.90;;;;;;4035871;29;20500;-65
2022/09/23 07:51:28;;;;;;;7.25;3.78;;;14.30;99.90;;;;;;4036281;29;20378;-64
2022/09/23 07:53:29;;;;;;;5.00;2.95;;;14.30;99.90;;;;;;4037492;29;20029;-64
2022/09/23 07:55:29;;;;;;;5.28;3.05;;;14.30;99.90;;;;;;4037698;29;20448;-65
2022/09/23 07:57:30;;;;;;;4.60;2.78;;;14.30;99.90;;;;;;4038489;29;20037;-64
2022/09/23 07:59:31;;;;;;;4.85;2.70;;;14.30;99.90;;;;;;4040710;29;20071;-64
2022/09/23 08:01:34;;;;;;;5.10;2.90;;;14.40;99.90;;;;;;4039023;29;20052;-65
2022/09/23 08:03:36;;;;;;;5.90;2.60;;;14.40;99.90;;;;;;4039037;29;20510;-64
2022/09/23 08:05:37;;;;;;;4.80;2.90;;;14.50;99.90;;;;;;4038558;29;20113;-64
2022/09/23 08:07:38;;;;;;;5.82;2.75;;;14.50;99.90;;;;;;4037346;29;20048;-64
2022/09/23 08:09:41;;;;;;;6.15;3.20;;;14.60;99.90;;;;;;4036703;29;20051;-64
2022/09/23 08:11:41;;;;;;;5.43;3.00;;;14.60;99.90;;;;;;4040321;29;20041;-64
2022/09/23 08:13:42;;;;;;;4.65;2.60;;;14.70;99.90;;;;;;4038296;29;20049;-64
2022/09/23 08:15:46;;;;;;;5.55;2.97;;;14.70;99.90;;;;;;4037112;29;20032;-66
2022/09/23 08:17:47;;;;;;;5.20;2.97;;;14.70;99.90;;;;;;4037774;29;20025;-64
2022/09/23 08:19:47;;;;;;;5.45;2.75;;;14.80;99.90;;;;;;4034161;29;20040;-64
2022/09/23 08:21:50;;;;;;;6.30;2.90;;;14.80;99.90;;;;;;4038602;29;20116;-64
2022/09/23 08:23:51;;;;;;;3.38;2.30;;;14.90;99.90;;;;;;4039760;29;20025;-64
2022/09/23 08:26:01;;;;;;;3.00;2.42;;;14.90;99.90;;;;;;4038036;29;20040;-64
2022/09/23 08:28:01;;;;;;;7.32;2.95;;;15.00;99.90;;;;;;4037985;29;20040;-64
2022/09/23 08:30:02;;;;;;;7.18;2.80;;;15.00;99.90;;;;;;4037582;29;20048;-66
2022/09/23 08:32:03;;;;;;;4.00;2.53;;;15.00;99.90;;;;;;4038461;29;20049;-65
2022/09/23 08:34:05;;;;;;;4.40;2.30;;;15.10;99.90;;;;;;4035398;29;20032;-64
2022/09/23 08:36:06;;;;;;;3.80;2.43;;;15.10;99.90;;;;;;4043909;29;20043;-64
2022/09/23 08:38:06;;;;;;;3.83;2.70;;;15.10;99.90;;;;;;4039590;29;20052;-64
2022/09/23 08:40:08;;;;;;;4.45;2.67;;;15.10;99.90;;;;;;4036458;29;20412;-64
2022/09/23 08:42:16;;;;;;;4.80;3.00;;;15.10;99.90;;;;;;4035672;29;20396;-64
2022/09/23 08:44:36;;;;;;;5.22;3.17;;;15.20;99.90;;;;;;4037615;29;20037;-65
2022/09/23 08:46:45;;;;;;;4.78;2.22;;;15.20;99.90;;;;;;4037367;29;20560;-65
2022/09/23 08:48:47;;;;;;;4.35;2.08;;;15.20;99.90;;;;;;4037158;29;20075;-65
2022/09/23 08:50:52;;;;;;;5.18;2.53;;;15.30;99.90;;;;;;4036386;29;20041;-65
2022/09/23 08:52:55;;;;;;;3.75;2.80;;;15.30;99.90;;;;;;4037042;29;20512;-65
2022/09/23 08:54:56;;;;;;;5.45;2.75;;;15.40;99.90;;;;;;4040449;29;20068;-65
2022/09/23 08:57:00;;;;;;;5.72;2.92;;;15.40;99.90;;;;;;4050459;29;20052;-65
2022/09/23 08:59:17;;;;;;;4.72;2.70;;;15.40;99.90;;;;;;4038683;29;20401;-64
2022/09/23 09:01:43;;;;;;;4.50;2.67;;;15.50;99.90;;;;;;4047687;29;20040;-65
2022/09/23 09:03:57;;;;;;;2.55;1.88;;;15.60;99.90;;;;;;4038967;29;20059;-66
2022/09/23 09:05:58;;;;;;;4.50;2.58;;;15.60;99.90;;;;;;4036554;29;20033;-65
2022/09/23 09:08:00;;;;;;;3.38;2.22;;;15.60;99.90;;;;;;4039534;29;20488;-65
2022/09/23 09:10:18;;;;;;;4.60;2.60;;;15.70;99.90;;;;;;4053813;29;20427;-65
2022/09/23 09:12:32;;;;;;;2.88;2.03;;;15.80;99.90;;;;;;4036135;29;20120;-65
2022/09/23 09:14:46;;;;;;;3.10;2.08;;;15.90;99.90;;;;;;4037486;29;20135;-65
2022/09/23 09:16:53;;;;;;;5.68;2.30;;;16.00;99.90;;;;;;4036253;29;20033;-65
2022/09/23 09:18:58;;;;;;;4.25;2.08;;;16.10;99.90;;;;;;4036427;29;20502;-66
2022/09/23 09:21:07;;;;;;;4.60;2.30;;;16.20;99.90;;;;;;4052170;29;20044;-65
2022/09/23 09:23:24;;;;;;;4.18;2.30;;;16.30;99.90;;;;;;4051501;29;20044;-65
2022/09/23 09:25:36;;;;;;;4.13;2.42;;;16.40;99.90;;;;;;4035244;29;20524;-66
2022/09/23 09:27:39;;;;;;;5.40;2.00;;;16.50;99.90;;;;;;4036025;29;20128;-65
2022/09/23 09:29:47;;;;;;;4.38;2.67;;;16.50;99.90;;;;;;4039972;29;20105;-64
2022/09/23 09:31:49;;;;;;;4.18;2.53;;;16.60;99.90;;;;;;4039349;29;20369;-65
2022/09/23 09:33:59;;;;;;;6.25;2.65;;;16.70;99.90;;;;;;4039705;29;20071;-65
2022/09/23 09:36:25;;;;;;;4.28;2.20;;;16.80;99.90;;;;;;4038388;29;20396;-66
2022/09/23 09:38:27;;;;;;;2.83;1.75;;;16.90;99.90;;;;;;4041623;29;20056;-66
2022/09/23 09:40:27;;;;;;;5.05;2.20;;;16.90;99.90;;;;;;4043811;29;20075;-65
2022/09/23 09:42:38;;;;;;;5.85;2.40;;;16.90;99.90;;;;;;4042270;29;20048;-66
2022/09/23 09:45:01;;;;;;;5.15;2.33;;;17.00;99.90;;;;;;4053484;29;20044;-65
2022/09/23 09:47:33;;;;;;;5.85;2.58;;;17.10;99.90;;;;;;4038835;29;20036;-65
2022/09/23 09:49:40;;;;;;;3.67;2.55;;;17.10;99.90;;;;;;4042795;29;20044;-65
2022/09/23 09:51:41;;;;;;;3.40;2.17;;;17.10;99.90;;;;;;4041367;29;21242;-65
2022/09/23 09:53:42;;;;;;;4.68;2.22;;;17.20;99.90;;;;;;4040189;29;20033;-65
2022/09/23 09:55:43;;;;;;;3.33;2.20;;;17.20;99.90;;;;;;4041737;29;20041;-66
2022/09/23 09:57:44;;;;;;;5.03;2.47;;;17.20;99.90;;;;;;4041756;29;20496;-66
2022/09/23 09:59:45;;;;;;;4.80;2.30;;;17.30;99.90;;;;;;4044098;29;20033;-66
2022/09/23 10:01:46;;;;;;;5.57;2.45;;;17.30;99.90;;;;;;4041844;29;20052;-66
2022/09/23 10:03:49;;;;;;;5.32;2.10;;;17.40;99.90;;;;;;4040656;29;20107;-66
2022/09/23 10:05:53;;;;;;;3.42;2.10;;;17.40;99.90;;;;;;4040389;29;20510;-66
2022/09/23 10:07:54;;;;;;;3.33;2.10;;;17.50;99.90;;;;;;4042797;29;20088;-66
2022/09/23 10:09:55;;;;;;;4.68;2.30;;;17.50;99.90;;;;;;4039710;29;20036;-66
2022/09/23 10:12:23;;;;;;;5.18;2.25;;;17.50;99.90;;;;;;4042767;29;20560;-66
2022/09/23 10:14:25;;;;;;;3.00;1.77;;;17.50;99.90;;;;;;4042240;29;20104;-66
2022/09/23 10:16:30;;;;;;;5.50;2.72;;;17.60;99.90;;;;;;4040974;29;20040;-66
2022/09/23 10:18:46;;;;;;;4.30;1.98;;;17.60;99.90;;;;;;4043558;29;20044;-66
2022/09/23 10:20:47;;;;;;;2.97;2.25;;;17.70;99.90;;;;;;4062019;29;20050;-66
2022/09/23 10:22:48;;;;;;;6.53;2.67;;;17.70;99.90;;;;;;4041809;29;20048;-66
2022/09/23 10:24:52;;;;;;;5.07;2.90;;;17.80;99.90;;;;;;4040447;29;20037;-66
2022/09/23 10:26:56;;;;;;;10.23;3.08;;;17.80;99.90;;;;;;4040332;29;20029;-66
2022/09/23 10:28:58;;;;;;;5.65;2.53;;;17.80;99.70;;;;;;4060621;29;20036;-66
2022/09/23 10:31:08;;;;;;;5.50;2.33;;;17.80;99.30;;;;;;4044887;29;20495;-67
2022/09/23 10:33:26;;;;;;;4.45;2.35;;;17.90;99.70;;;;;;4051176;29;20036;-66
2022/09/23 10:35:28;;;;;;;5.15;2.33;;;17.90;99.90;;;;;;4036782;29;20036;-67
2022/09/23 10:37:43;;;;;;;3.97;2.53;;;18.00;99.90;;;;;;4037600;29;20048;-66
2022/09/23 10:47:33;;;;;;;5.28;2.72;;;18.20;99.90;;;;;;4038463;29;20051;-66
2022/09/23 10:49:48;;;;;;;3.38;2.40;;;18.30;99.20;;;;;;4051793;29;20044;-66
2022/09/23 10:51:58;;;;;;;6.88;2.75;;;18.30;99.60;;;;;;4052627;29;20131;-66
2022/09/23 10:54:35;;;;;;;5.00;2.42;;;18.30;98.60;;;;;;4036671;29;20230;-67
2022/09/23 10:56:41;;;;;;;5.22;2.50;;;18.40;99.70;;;;;;4035875;29;20036;-66
2022/09/23 10:59:10;;;;;;;3.83;2.40;;;18.50;99.00;;;;;;4039689;29;20033;-66
2022/09/23 11:01:31;;;;;;;6.50;2.72;;;18.50;99.40;;;;;;4037106;29;20409;-66
2022/09/23 11:03:58;;;;;;;4.32;2.60;;;18.50;98.90;;;;;;4036871;29;20116;-65